Time;durP1;ratioP1;P1;durP2;ratioP2;P2;SDS_P1;SDS_P2;PMS_P1;PMS_P2;Temp;Humidity;BMP_temperature;BMP_pressure;BME280_temperature;BME280_humidity;BME280_pressure;Samples;Min_cycle;Max_cycle;Signal;HPM_P1;HPM_P2
2021/08/18 00:00:47;;;;;;;8.50;7.80;;;;;23.40;100438.00;;;;2062814;28;20231;-52
2021/08/18 00:01:47;;;;;;;8.30;7.60;;;;;23.40;100442.00;;;;2061992;28;20207;-52
2021/08/18 00:02:47;;;;;;;8.90;8.20;;;;;23.40;100448.00;;;;2066040;28;20224;-53
2021/08/18 00:03:48;;;;;;;8.20;7.60;;;;;23.40;100445.00;;;;2057390;28;21067;-53
2021/08/18 00:04:48;;;;;;;8.87;8.17;;;;;23.40;100448.00;;;;2059760;28;20302;-53
2021/08/18 00:05:49;;;;;;;7.67;7.07;;;;;23.40;100445.00;;;;2062576;28;20222;-53
2021/08/18 00:06:49;;;;;;;8.47;7.77;;;;;23.40;100446.00;;;;2059203;28;20226;-53
2021/08/18 00:07:49;;;;;;;8.37;7.67;;;;;23.40;100453.00;;;;2059534;28;20226;-52
2021/08/18 00:08:50;;;;;;;7.63;7.03;;;;;23.40;100453.00;;;;2061675;28;20812;-53
2021/08/18 00:09:50;;;;;;;8.20;7.50;;;;;23.40;100454.00;;;;2070566;28;20217;-53
2021/08/18 00:10:51;;;;;;;7.43;6.90;;;;;23.40;100448.00;;;;2067349;28;20233;-53
2021/08/18 00:11:51;;;;;;;8.20;7.60;;;;;23.40;100455.00;;;;2064777;28;20239;-53
2021/08/18 00:12:51;;;;;;;7.67;6.97;;;;;23.40;100453.00;;;;2066411;28;20230;-52
2021/08/18 00:13:52;;;;;;;7.97;7.27;;;;;23.40;100451.00;;;;2064082;28;20749;-53
2021/08/18 00:14:52;;;;;;;7.70;7.00;;;;;23.40;100451.00;;;;2063716;28;20238;-53
2021/08/18 00:15:55;;;;;;;6.93;6.43;;;;;23.40;100453.00;;;;2063232;28;20298;-53
2021/08/18 00:16:55;;;;;;;7.70;7.10;;;;;23.40;100453.00;;;;2066785;28;20734;-53
2021/08/18 00:17:59;;;;;;;6.90;6.40;;;;;23.40;100452.00;;;;2067537;28;20239;-53
2021/08/18 00:19:00;;;;;;;7.28;6.68;;;;;23.40;100446.00;;;;2065539;28;20722;-53
2021/08/18 00:20:00;;;;;;;7.50;7.00;;;;;23.40;100454.00;;;;2067732;28;20226;-56
2021/08/18 00:21:01;;;;;;;7.20;6.70;;;;;23.40;100445.00;;;;2071480;28;20206;-54
2021/08/18 00:22:01;;;;;;;7.60;7.00;;;;;23.40;100445.00;;;;2065488;28;20207;-55
2021/08/18 00:23:02;;;;;;;6.70;6.20;;;;;23.40;100450.00;;;;2069752;28;20199;-53
2021/08/18 00:24:02;;;;;;;7.30;6.70;;;;;23.40;100445.00;;;;2071036;28;20209;-52
2021/08/18 00:25:03;;;;;;;6.70;6.17;;;;;23.40;100450.00;;;;2064654;28;20227;-53
2021/08/18 00:26:04;;;;;;;7.00;6.50;;;;;23.40;100439.00;;;;2063855;28;20210;-53
2021/08/18 00:27:05;;;;;;;6.30;5.80;;;;;23.30;100449.00;;;;2069964;28;20737;-53
2021/08/18 00:28:05;;;;;;;6.90;6.40;;;;;23.40;100446.00;;;;2071521;28;21046;-53
2021/08/18 00:29:05;;;;;;;6.90;6.40;;;;;23.30;100436.00;;;;2063989;28;20203;-53
2021/08/18 00:30:06;;;;;;;6.50;6.00;;;;;23.40;100438.00;;;;2063955;28;20215;-53
2021/08/18 00:31:07;;;;;;;6.77;6.27;;;;;23.40;100427.00;;;;2071310;28;20210;-53
2021/08/18 00:32:08;;;;;;;6.80;6.30;;;;;23.30;100428.00;;;;2069825;28;20272;-53
2021/08/18 00:33:08;;;;;;;6.20;5.70;;;;;23.30;100433.00;;;;2062678;28;20675;-53
2021/08/18 00:34:09;;;;;;;6.77;6.27;;;;;23.30;100432.00;;;;2067575;28;20458;-53
2021/08/18 00:35:09;;;;;;;6.10;5.60;;;;;23.30;100432.00;;;;2066658;28;20349;-51
2021/08/18 00:36:09;;;;;;;6.27;5.77;;;;;23.40;100432.00;;;;2071645;28;20206;-53
2021/08/18 00:37:10;;;;;;;6.30;5.80;;;;;23.40;100431.00;;;;2066745;28;20640;-53
2021/08/18 00:38:10;;;;;;;6.97;6.40;;;;;23.40;100436.00;;;;2070046;28;20222;-53
2021/08/18 00:39:11;;;;;;;6.10;5.70;;;;;23.40;100450.00;;;;2067256;28;20210;-53
2021/08/18 00:40:12;;;;;;;5.73;5.23;;;;;23.30;100434.00;;;;2070436;28;20737;-53
2021/08/18 00:41:12;;;;;;;5.80;5.38;;;;;23.30;100428.00;;;;2068854;28;20219;-53
2021/08/18 00:42:14;;;;;;;5.93;5.43;;;;;23.30;100433.00;;;;2063527;28;20219;-53
2021/08/18 00:43:15;;;;;;;5.95;5.55;;;;;23.30;100427.00;;;;2071309;28;20217;-53
2021/08/18 00:44:15;;;;;;;6.23;5.70;;;;;23.30;100427.00;;;;2067332;28;20222;-53
2021/08/18 00:45:16;;;;;;;5.20;4.80;;;;;23.30;100432.00;;;;2068599;28;20265;-52
2021/08/18 00:46:17;;;;;;;5.67;5.27;;;;;23.30;100423.00;;;;2067015;28;20763;-52
2021/08/18 00:47:17;;;;;;;5.03;4.63;;;;;23.30;100423.00;;;;2064111;28;20562;-53
2021/08/18 00:48:17;;;;;;;5.63;5.27;;;;;23.30;100423.00;;;;2070179;28;20576;-53
2021/08/18 00:49:19;;;;;;;5.33;4.93;;;;;23.30;100429.00;;;;2068723;28;20618;-53
2021/08/18 00:50:21;;;;;;;7.53;5.68;;;;;23.30;100433.00;;;;2066389;28;20218;-52
2021/08/18 00:51:21;;;;;;;5.82;5.43;;;;;23.30;100426.00;;;;2062418;28;20210;-53
2021/08/18 00:52:21;;;;;;;5.30;4.90;;;;;23.30;100433.00;;;;2063380;28;20214;-52
2021/08/18 00:53:22;;;;;;;5.90;5.40;;;;;23.30;100430.00;;;;2064756;28;20235;-52
2021/08/18 00:54:23;;;;;;;5.90;5.40;;;;;23.30;100430.00;;;;2068957;28;20242;-53
2021/08/18 00:55:24;;;;;;;4.80;4.50;;;;;23.30;100431.00;;;;2061946;28;20231;-52
2021/08/18 00:56:24;;;;;;;5.97;5.47;;;;;23.30;100434.00;;;;2065768;28;20245;-52
2021/08/18 00:57:24;;;;;;;4.70;4.40;;;;;23.30;100435.00;;;;2070924;28;20469;-53
2021/08/18 00:58:25;;;;;;;4.80;4.40;;;;;23.30;100437.00;;;;2070760;28;20301;-54
2021/08/18 00:59:26;;;;;;;5.07;4.68;;;;;23.30;100438.00;;;;2061886;28;21545;-53
2021/08/18 01:00:27;;;;;;;5.07;4.67;;;;;23.30;100433.00;;;;2068715;28;20325;-54
2021/08/18 01:01:27;;;;;;;4.50;4.20;;;;;23.30;100430.00;;;;2065444;28;20635;-53
2021/08/18 01:02:28;;;;;;;4.93;4.53;;;;;23.30;100432.00;;;;2063966;28;20309;-53
2021/08/18 01:03:29;;;;;;;5.07;4.67;;;;;23.30;100456.00;;;;2071482;28;20245;-52
2021/08/18 01:04:30;;;;;;;5.38;4.97;;;;;23.30;100434.00;;;;2070161;28;20224;-53
2021/08/18 01:05:31;;;;;;;4.90;4.50;;;;;23.30;100432.00;;;;2069665;28;20214;-53
2021/08/18 01:06:32;;;;;;;5.00;4.70;;;;;23.30;100427.00;;;;2064421;28;20218;-52
2021/08/18 01:07:33;;;;;;;4.63;4.32;;;;;23.30;100435.00;;;;2068577;28;20473;-53
2021/08/18 01:08:35;;;;;;;5.23;4.83;;;;;23.30;100438.00;;;;2067687;28;20273;-55
2021/08/18 01:09:35;;;;;;;4.90;4.50;;;;;23.30;100434.00;;;;2066860;28;20223;-54
2021/08/18 01:10:35;;;;;;;4.67;4.37;;;;;23.30;100431.00;;;;2064647;28;20301;-54
2021/08/18 01:11:40;;;;;;;4.77;4.47;;;;;23.30;100431.00;;;;2072462;28;20244;-54
2021/08/18 01:12:40;;;;;;;4.90;4.60;;;;;23.30;100430.00;;;;2067386;28;20210;-55
2021/08/18 01:13:40;;;;;;;4.40;4.10;;;;;23.30;100430.00;;;;2068141;28;20296;-54
2021/08/18 01:14:41;;;;;;;4.30;3.97;;;;;23.30;100427.00;;;;2064051;28;20306;-54
2021/08/18 01:15:41;;;;;;;4.57;4.27;;;;;23.30;100429.00;;;;2071714;28;20345;-53
2021/08/18 01:16:44;;;;;;;4.80;4.40;;;;;23.30;100433.00;;;;2067928;28;20219;-53
2021/08/18 01:17:47;;;;;;;4.43;4.13;;;;;23.30;100437.00;;;;2068142;28;20285;-54
2021/08/18 01:18:47;;;;;;;4.05;3.75;;;;;23.30;100435.00;;;;2064798;28;20700;-52
2021/08/18 01:19:48;;;;;;;4.53;4.23;;;;;23.30;100436.00;;;;2061438;28;20245;-55
2021/08/18 01:20:49;;;;;;;4.32;4.03;;;;;23.30;100435.00;;;;2057928;28;20230;-52
2021/08/18 01:21:49;;;;;;;4.50;4.17;;;;;23.30;100428.00;;;;2063022;28;20207;-53
2021/08/18 01:22:50;;;;;;;4.70;4.33;;;;;23.30;100433.00;;;;2065964;28;20575;-53
2021/08/18 01:23:50;;;;;;;4.10;3.80;;;;;23.30;100436.00;;;;2062130;28;20212;-55
2021/08/18 01:24:51;;;;;;;4.97;4.47;;;;;23.30;100431.00;;;;2057739;28;20203;-56
2021/08/18 01:25:52;;;;;;;4.43;4.13;;;;;23.30;100439.00;;;;2058853;28;20283;-55
2021/08/18 01:26:52;;;;;;;4.07;3.78;;;;;23.30;100431.00;;;;2057865;28;20220;-54
2021/08/18 01:27:54;;;;;;;4.20;3.80;;;;;23.30;100436.00;;;;2058203;28;20228;-54
2021/08/18 01:28:55;;;;;;;4.20;3.90;;;;;23.30;100439.00;;;;2058139;28;20689;-55
2021/08/18 01:29:56;;;;;;;4.50;4.20;;;;;23.30;100425.00;;;;2058222;28;20223;-52
2021/08/18 01:30:57;;;;;;;4.20;3.90;;;;;23.30;100436.00;;;;2057466;28;20238;-55
2021/08/18 01:31:58;;;;;;;3.90;3.60;;;;;23.30;100437.00;;;;2069621;28;20511;-53
2021/08/18 01:33:04;;;;;;;4.40;4.10;;;;;23.30;100437.00;;;;2065686;28;20233;-52
2021/08/18 01:34:05;;;;;;;4.50;4.20;;;;;23.30;100434.00;;;;2066568;28;20747;-53
2021/08/18 01:35:05;;;;;;;4.20;3.90;;;;;23.30;100439.00;;;;2065198;28;20206;-52
2021/08/18 01:36:06;;;;;;;3.90;3.60;;;;;23.30;100438.00;;;;2058544;28;20474;-53
2021/08/18 01:37:06;;;;;;;5.30;3.50;;;;;23.30;100442.00;;;;2060398;28;20597;-51
2021/08/18 01:38:08;;;;;;;4.20;3.90;;;;;23.30;100441.00;;;;2059330;28;20218;-53
2021/08/18 01:39:09;;;;;;;3.42;3.22;;;;;23.30;100448.00;;;;2066536;28;20333;-52
2021/08/18 01:40:10;;;;;;;4.00;3.70;;;;;23.30;100453.00;;;;2071341;28;20218;-54
2021/08/18 01:41:10;;;;;;;3.90;3.60;;;;;23.30;100444.00;;;;2055786;28;20216;-53
2021/08/18 01:42:11;;;;;;;4.00;3.70;;;;;23.30;100439.00;;;;2062403;28;20616;-53
2021/08/18 01:43:11;;;;;;;4.47;4.17;;;;;23.30;100439.00;;;;2052447;28;20734;-53
2021/08/18 01:44:11;;;;;;;5.37;3.90;;;;;23.30;100438.00;;;;2073273;28;20683;-52
2021/08/18 01:45:19;;;;;;;3.90;3.50;;;;;23.10;100439.00;;;;2064890;28;20272;-52
2021/08/18 01:46:19;;;;;;;4.03;3.72;;;;;23.30;100440.00;;;;2063691;28;20223;-53
2021/08/18 01:47:20;;;;;;;4.03;3.73;;;;;23.30;100447.00;;;;2061515;28;20218;-52
2021/08/18 01:48:22;;;;;;;4.23;3.93;;;;;23.30;100443.00;;;;2063980;28;20298;-52
2021/08/18 01:49:23;;;;;;;3.95;3.67;;;;;23.20;100446.00;;;;2063902;28;20207;-53
2021/08/18 01:50:24;;;;;;;3.77;3.50;;;;;23.20;100450.00;;;;2069563;28;20245;-53
2021/08/18 01:51:24;;;;;;;3.92;3.63;;;;;23.20;100440.00;;;;2065040;28;20219;-53
2021/08/18 01:52:25;;;;;;;3.93;3.63;;;;;23.30;100447.00;;;;2063236;28;20595;-53
2021/08/18 01:53:30;;;;;;;3.57;3.27;;;;;23.20;100448.00;;;;2063851;28;20318;-51
2021/08/18 01:54:30;;;;;;;4.20;3.90;;;;;23.30;100441.00;;;;2063990;28;20222;-52
2021/08/18 01:55:30;;;;;;;3.70;3.43;;;;;23.20;100442.00;;;;2066353;28;20237;-54
2021/08/18 01:56:31;;;;;;;3.20;3.00;;;;;23.20;100442.00;;;;2068969;28;20257;-52
2021/08/18 01:57:33;;;;;;;3.63;3.33;;;;;23.20;100445.00;;;;2070574;28;20224;-51
2021/08/18 01:58:34;;;;;;;3.40;3.20;;;;;23.20;100450.00;;;;2069767;28;20218;-52
2021/08/18 01:59:34;;;;;;;4.15;3.85;;;;;23.20;100443.00;;;;2060583;28;20211;-54
2021/08/18 02:00:35;;;;;;;3.03;2.83;;;;;23.20;100447.00;;;;2065194;28;20219;-52
2021/08/18 02:01:35;;;;;;;4.07;3.77;;;;;23.20;100447.00;;;;2078998;28;20935;-54
2021/08/18 02:02:36;;;;;;;4.03;3.70;;;;;23.30;100448.00;;;;2078943;28;20283;-52
2021/08/18 02:03:36;;;;;;;4.07;3.63;;;;;23.30;100446.00;;;;2070416;28;20222;-53
2021/08/18 02:04:36;;;;;;;4.00;3.70;;;;;23.20;100441.00;;;;2070982;28;20229;-53
2021/08/18 02:05:37;;;;;;;3.70;3.50;;;;;23.20;100446.00;;;;2069975;28;20998;-53
2021/08/18 02:06:37;;;;;;;3.47;3.17;;;;;23.20;100450.00;;;;2064439;28;20687;-53
2021/08/18 02:07:38;;;;;;;3.33;3.13;;;;;23.20;100443.00;;;;2064413;28;20726;-52
2021/08/18 02:08:38;;;;;;;5.93;3.50;;;;;23.20;100440.00;;;;2063660;28;20221;-53
2021/08/18 02:09:39;;;;;;;4.10;3.70;;;;;23.20;100445.00;;;;2057089;28;20227;-52
2021/08/18 02:10:39;;;;;;;4.13;3.83;;;;;23.20;100447.00;;;;2060657;28;20313;-53
2021/08/18 02:11:40;;;;;;;3.40;3.10;;;;;23.20;100440.00;;;;2062554;28;20219;-53
2021/08/18 02:12:40;;;;;;;3.60;3.40;;;;;23.20;100445.00;;;;2063325;28;20239;-53
2021/08/18 02:13:41;;;;;;;4.13;3.83;;;;;23.20;100450.00;;;;2062728;28;20349;-52
2021/08/18 02:14:41;;;;;;;4.50;4.10;;;;;23.20;100452.00;;;;2066992;28;20249;-53
2021/08/18 02:15:42;;;;;;;4.00;3.60;;;;;23.20;100448.00;;;;2064786;28;20222;-53
2021/08/18 02:16:42;;;;;;;5.30;4.07;;;;;23.20;100446.00;;;;2064265;28;20703;-53
2021/08/18 02:17:43;;;;;;;3.70;3.50;;;;;23.20;100450.00;;;;2063262;28;20223;-52
2021/08/18 02:18:43;;;;;;;3.77;3.57;;;;;23.20;100448.00;;;;2063668;28;20219;-53
2021/08/18 02:19:44;;;;;;;3.40;3.20;;;;;23.20;100445.00;;;;2060409;28;20237;-53
2021/08/18 02:20:45;;;;;;;3.90;3.60;;;;;23.20;100451.00;;;;2068570;28;20691;-53
2021/08/18 02:21:45;;;;;;;4.10;3.83;;;;;23.20;100445.00;;;;2071839;28;20214;-53
2021/08/18 02:22:46;;;;;;;4.00;3.70;;;;;23.20;100438.00;;;;2071854;28;20703;-53
2021/08/18 02:23:46;;;;;;;3.90;3.60;;;;;23.20;100437.00;;;;2071086;28;20297;-53
2021/08/18 02:24:46;;;;;;;3.80;3.50;;;;;23.20;100447.00;;;;2064860;28;20294;-53
2021/08/18 02:25:47;;;;;;;4.80;3.70;;;;;23.20;100445.00;;;;2067313;28;20214;-53
2021/08/18 02:26:48;;;;;;;6.63;3.97;;;;;23.20;100449.00;;;;2067501;28;20306;-53
2021/08/18 02:27:48;;;;;;;4.10;3.80;;;;;23.20;100454.00;;;;2071948;28;20591;-53
2021/08/18 02:28:49;;;;;;;3.53;3.33;;;;;23.20;100452.00;;;;2062993;28;20219;-53
2021/08/18 02:29:49;;;;;;;4.33;4.03;;;;;23.20;100455.00;;;;2063721;28;20214;-53
2021/08/18 02:30:49;;;;;;;4.00;3.57;;;;;23.20;100453.00;;;;2070023;28;20758;-55
2021/08/18 02:31:50;;;;;;;3.80;3.50;;;;;23.20;100448.00;;;;2071775;28;20245;-53
2021/08/18 02:32:50;;;;;;;3.37;3.17;;;;;23.20;100455.00;;;;2063954;28;20878;-53
2021/08/18 02:33:51;;;;;;;4.10;3.80;;;;;23.20;100450.00;;;;2063633;28;20580;-57
2021/08/18 02:34:51;;;;;;;4.20;3.90;;;;;23.20;100451.00;;;;2063245;28;20215;-58
2021/08/18 02:35:52;;;;;;;4.07;3.77;;;;;23.20;100447.00;;;;2063047;28;20578;-54
2021/08/18 02:36:52;;;;;;;4.10;3.80;;;;;23.20;100453.00;;;;2065938;28;20217;-52
2021/08/18 02:37:53;;;;;;;3.27;3.07;;;;;23.20;100452.00;;;;2062932;28;20215;-55
2021/08/18 02:38:54;;;;;;;4.28;3.97;;;;;23.20;100446.00;;;;2063782;28;20218;-55
2021/08/18 02:39:54;;;;;;;4.40;4.10;;;;;23.20;100444.00;;;;2063526;28;20286;-52
2021/08/18 02:40:55;;;;;;;4.10;3.80;;;;;23.20;100448.00;;;;2062931;28;20207;-54
2021/08/18 02:41:55;;;;;;;4.40;4.00;;;;;23.20;100452.00;;;;2063147;28;20572;-54
2021/08/18 02:42:56;;;;;;;4.23;3.93;;;;;23.20;100445.00;;;;2054074;28;20279;-55
2021/08/18 02:43:57;;;;;;;3.90;3.45;;;;;23.20;100440.00;;;;2078796;28;20213;-53
2021/08/18 02:44:57;;;;;;;4.47;4.17;;;;;23.20;100442.00;;;;2076692;28;20210;-56
2021/08/18 02:45:57;;;;;;;4.30;4.00;;;;;23.20;100443.00;;;;2066009;28;20217;-53
2021/08/18 02:46:58;;;;;;;4.07;3.80;;;;;23.20;100442.00;;;;2064852;28;20290;-53
2021/08/18 02:47:58;;;;;;;3.70;3.43;;;;;23.20;100453.00;;;;2063626;28;20249;-54
2021/08/18 02:48:58;;;;;;;4.10;3.80;;;;;23.20;100444.00;;;;2068196;28;20691;-53
2021/08/18 02:49:59;;;;;;;4.10;3.80;;;;;23.20;100444.00;;;;2065083;28;20211;-53
2021/08/18 02:50:59;;;;;;;4.20;3.90;;;;;23.20;100447.00;;;;2062237;28;20211;-53
2021/08/18 02:51:59;;;;;;;4.07;3.77;;;;;23.20;100440.00;;;;2065049;28;20211;-53
2021/08/18 02:53:00;;;;;;;4.03;3.73;;;;;23.20;100444.00;;;;2078739;28;20221;-53
2021/08/18 02:54:00;;;;;;;4.60;4.03;;;;;23.20;100433.00;;;;2078264;28;20214;-54
2021/08/18 02:55:01;;;;;;;4.13;3.77;;;;;23.20;100436.00;;;;2063811;28;20218;-53
2021/08/18 02:56:01;;;;;;;4.07;3.77;;;;;23.20;100441.00;;;;2063606;28;20219;-55
2021/08/18 02:57:02;;;;;;;4.27;3.97;;;;;23.20;100431.00;;;;2062572;28;20250;-53
2021/08/18 02:58:02;;;;;;;4.07;3.77;;;;;23.20;100444.00;;;;2066239;28;20706;-53
2021/08/18 02:59:03;;;;;;;4.37;3.97;;;;;23.10;100437.00;;;;2061724;28;20214;-54
2021/08/18 03:00:05;;;;;;;4.10;3.80;;;;;23.20;100442.00;;;;2062103;28;20435;-53
2021/08/18 03:01:05;;;;;;;4.03;3.72;;;;;23.20;100437.00;;;;2062018;28;20207;-53
2021/08/18 03:02:05;;;;;;;3.60;3.30;;;;;23.20;100449.00;;;;2062499;28;20576;-53
2021/08/18 03:03:06;;;;;;;3.87;3.57;;;;;23.20;100442.00;;;;2062168;28;20283;-53
2021/08/18 03:04:06;;;;;;;4.73;4.43;;;;;23.10;100438.00;;;;2062862;28;20746;-53
2021/08/18 03:05:07;;;;;;;4.17;3.87;;;;;23.20;100443.00;;;;2062090;28;20289;-53
2021/08/18 03:06:07;;;;;;;4.73;4.40;;;;;23.10;100438.00;;;;2064097;28;20214;-53
2021/08/18 03:07:08;;;;;;;4.10;3.80;;;;;23.20;100444.00;;;;2065295;28;20465;-53
2021/08/18 03:08:08;;;;;;;4.57;4.27;;;;;23.20;100444.00;;;;2066347;28;20258;-53
2021/08/18 03:09:09;;;;;;;4.10;3.80;;;;;23.20;100443.00;;;;2064530;28;20237;-53
2021/08/18 03:10:09;;;;;;;3.70;3.50;;;;;23.20;100449.00;;;;2062175;28;20221;-55
2021/08/18 03:11:10;;;;;;;3.50;3.30;;;;;23.20;100447.00;;;;2061685;28;20289;-53
2021/08/18 03:12:10;;;;;;;3.83;3.53;;;;;23.20;100436.00;;;;2083988;28;20219;-55
2021/08/18 03:13:10;;;;;;;9.00;3.87;;;;;23.20;100441.00;;;;2086646;28;20225;-53
2021/08/18 03:14:11;;;;;;;4.17;3.87;;;;;23.20;100444.00;;;;2070172;28;20222;-53
2021/08/18 03:15:11;;;;;;;4.50;4.20;;;;;23.20;100451.00;;;;2070494;28;20253;-53
2021/08/18 03:16:12;;;;;;;6.43;3.90;;;;;23.10;100445.00;;;;2070669;28;20225;-53
2021/08/18 03:17:12;;;;;;;4.27;3.97;;;;;23.10;100443.00;;;;2071044;28;20691;-54
2021/08/18 03:18:13;;;;;;;4.70;4.40;;;;;23.10;100445.00;;;;2070270;28;20225;-53
2021/08/18 03:19:13;;;;;;;4.07;3.77;;;;;23.10;100450.00;;;;2064513;28;20771;-53
2021/08/18 03:20:14;;;;;;;3.90;3.60;;;;;23.10;100451.00;;;;2085583;28;20308;-55
2021/08/18 03:21:14;;;;;;;4.53;4.23;;;;;23.10;100444.00;;;;2081836;28;20213;-53
2021/08/18 03:22:14;;;;;;;3.90;3.60;;;;;23.10;100445.00;;;;2068711;28;20715;-53
2021/08/18 03:23:15;;;;;;;4.70;4.30;;;;;23.10;100449.00;;;;2064941;28;20257;-54
2021/08/18 03:24:15;;;;;;;3.73;3.47;;;;;23.10;100447.00;;;;2065229;28;20218;-53
2021/08/18 03:25:15;;;;;;;4.60;4.30;;;;;23.20;100439.00;;;;2063879;28;20701;-54
2021/08/18 03:26:16;;;;;;;4.23;3.93;;;;;23.20;100440.00;;;;2061850;28;20662;-53
2021/08/18 03:27:17;;;;;;;4.57;4.27;;;;;23.20;100441.00;;;;2062939;28;20207;-54
2021/08/18 03:28:17;;;;;;;4.20;3.90;;;;;23.10;100438.00;;;;2062375;28;20897;-53
2021/08/18 03:29:18;;;;;;;4.27;3.97;;;;;23.10;100437.00;;;;2071422;28;20214;-53
2021/08/18 03:30:18;;;;;;;4.33;4.03;;;;;23.10;100440.00;;;;2066387;28;20222;-54
2021/08/18 03:31:18;;;;;;;5.33;4.23;;;;;23.10;100442.00;;;;2066975;28;20214;-53
2021/08/18 03:32:19;;;;;;;4.27;3.97;;;;;23.10;100434.00;;;;2064103;28;20273;-54
2021/08/18 03:33:19;;;;;;;4.37;4.07;;;;;23.10;100431.00;;;;2064267;28;20211;-53
2021/08/18 03:34:19;;;;;;;3.67;3.43;;;;;23.10;100436.00;;;;2064321;28;20690;-54
2021/08/18 03:35:20;;;;;;;4.13;3.83;;;;;23.10;100395.00;;;;2066981;28;20225;-54
2021/08/18 03:36:20;;;;;;;4.70;4.30;;;;;23.10;100445.00;;;;2064203;28;20584;-55
2021/08/18 03:37:21;;;;;;;4.50;4.10;;;;;23.10;100441.00;;;;2067766;28;20302;-55
2021/08/18 03:38:21;;;;;;;4.67;4.37;;;;;23.10;100444.00;;;;2067324;28;20234;-53
2021/08/18 03:39:21;;;;;;;4.57;4.27;;;;;23.10;100439.00;;;;2064305;28;20730;-53
2021/08/18 03:40:22;;;;;;;4.00;3.70;;;;;23.10;100437.00;;;;2064002;28;20206;-53
2021/08/18 03:41:22;;;;;;;4.57;4.27;;;;;23.10;100445.00;;;;2064125;28;20219;-54
2021/08/18 03:42:22;;;;;;;4.00;3.73;;;;;23.10;100445.00;;;;2063934;28;20697;-53
2021/08/18 03:43:23;;;;;;;3.93;3.63;;;;;23.10;100444.00;;;;2064150;28;20560;-53
2021/08/18 03:44:23;;;;;;;4.47;4.07;;;;;23.10;100446.00;;;;2064365;28;20434;-53
2021/08/18 03:45:24;;;;;;;4.60;4.30;;;;;23.10;100444.00;;;;2064263;28;20218;-53
2021/08/18 03:46:24;;;;;;;4.80;4.43;;;;;23.10;100440.00;;;;2064086;28;20222;-54
2021/08/18 03:47:25;;;;;;;4.80;4.40;;;;;23.10;100443.00;;;;2064100;28;20211;-53
2021/08/18 03:48:25;;;;;;;4.40;4.00;;;;;23.10;100444.00;;;;2064275;28;20241;-53
2021/08/18 03:49:26;;;;;;;4.43;4.13;;;;;23.10;100434.00;;;;2067232;28;20238;-54
2021/08/18 03:50:26;;;;;;;4.10;3.80;;;;;23.10;100444.00;;;;2064893;28;20215;-53
2021/08/18 03:51:26;;;;;;;4.10;3.80;;;;;23.10;100443.00;;;;2064234;28;20211;-53
2021/08/18 03:52:27;;;;;;;4.20;3.90;;;;;23.10;100441.00;;;;2064170;28;20215;-54
2021/08/18 03:53:27;;;;;;;3.87;3.57;;;;;23.10;100445.00;;;;2064002;28;20234;-53
2021/08/18 03:54:28;;;;;;;3.90;3.67;;;;;23.10;100444.00;;;;2064663;28;20726;-53
2021/08/18 03:55:28;;;;;;;4.30;4.00;;;;;23.10;100443.00;;;;2066148;28;20215;-53
2021/08/18 03:56:28;;;;;;;4.77;4.33;;;;;23.10;100432.00;;;;2066341;28;20222;-53
2021/08/18 03:57:29;;;;;;;4.17;3.87;;;;;23.10;100449.00;;;;2068400;28;20301;-54
2021/08/18 03:58:29;;;;;;;3.33;3.13;;;;;23.10;100445.00;;;;2072097;28;20769;-54
2021/08/18 03:59:29;;;;;;;4.20;3.90;;;;;23.10;100443.00;;;;2072359;28;20562;-54
2021/08/18 04:00:30;;;;;;;3.60;3.40;;;;;23.10;100436.00;;;;2070432;28;20303;-54
2021/08/18 04:01:30;;;;;;;4.30;4.00;;;;;23.10;100442.00;;;;2064079;28;20238;-53
2021/08/18 04:02:31;;;;;;;3.90;3.60;;;;;23.10;100441.00;;;;2065991;28;20222;-53
2021/08/18 04:03:33;;;;;;;4.37;3.97;;;;;23.10;100436.00;;;;2072109;28;20210;-54
2021/08/18 04:04:33;;;;;;;3.97;3.63;;;;;23.10;100438.00;;;;2068904;28;20219;-53
2021/08/18 04:05:34;;;;;;;3.50;3.30;;;;;23.10;100438.00;;;;2065064;28;20210;-53
2021/08/18 04:06:35;;;;;;;4.07;3.77;;;;;23.10;100433.00;;;;2064728;28;20298;-53
2021/08/18 04:07:35;;;;;;;4.13;3.83;;;;;23.10;100445.00;;;;2058618;28;20779;-56
2021/08/18 04:08:36;;;;;;;4.67;4.37;;;;;23.10;100441.00;;;;2056236;28;20700;-54
2021/08/18 04:09:36;;;;;;;4.50;4.20;;;;;23.10;100438.00;;;;2062755;28;20695;-55
2021/08/18 04:10:37;;;;;;;5.07;4.67;;;;;23.10;100445.00;;;;2067772;28;20276;-54
2021/08/18 04:11:37;;;;;;;4.63;4.23;;;;;23.10;100440.00;;;;2064470;28;20265;-53
2021/08/18 04:12:54;;;;;;;4.50;4.20;;;;;23.10;100444.00;;;;2066742;28;20217;-54
2021/08/18 04:13:55;;;;;;;3.92;3.63;;;;;23.10;100447.00;;;;2080456;28;20217;-55
2021/08/18 04:14:55;;;;;;;4.40;4.10;;;;;23.10;100439.00;;;;2064572;28;20219;-53
2021/08/18 04:15:56;;;;;;;4.30;4.00;;;;;23.10;100446.00;;;;2060032;28;20334;-53
2021/08/18 04:16:56;;;;;;;4.47;4.17;;;;;23.10;100444.00;;;;2060098;28;20239;-53
2021/08/18 04:17:56;;;;;;;8.20;4.60;;;;;23.10;100441.00;;;;2055727;28;20239;-53
2021/08/18 04:18:57;;;;;;;4.40;4.10;;;;;23.10;100440.00;;;;2066375;28;20233;-55
2021/08/18 04:19:57;;;;;;;4.10;3.80;;;;;23.10;100440.00;;;;2066524;28;20215;-56
2021/08/18 04:20:57;;;;;;;4.27;3.97;;;;;23.10;100446.00;;;;2062513;28;20207;-56
2021/08/18 04:21:58;;;;;;;4.47;4.07;;;;;23.10;100432.00;;;;2063730;28;20223;-56
2021/08/18 04:22:58;;;;;;;4.10;3.80;;;;;23.10;100442.00;;;;2059623;28;20594;-55
2021/08/18 04:23:59;;;;;;;4.30;4.00;;;;;23.10;100448.00;;;;2057180;28;20643;-55
2021/08/18 04:24:59;;;;;;;3.97;3.67;;;;;23.10;100444.00;;;;2056030;28;20488;-55
2021/08/18 04:25:59;;;;;;;4.50;4.20;;;;;23.10;100452.00;;;;2059834;28;20583;-56
2021/08/18 04:27:00;;;;;;;4.40;4.00;;;;;23.10;100454.00;;;;2058761;28;20748;-56
2021/08/18 04:28:00;;;;;;;4.37;4.00;;;;;23.10;100446.00;;;;2067498;28;20237;-54
2021/08/18 04:29:00;;;;;;;4.00;3.70;;;;;23.10;100447.00;;;;2061387;28;20211;-54
2021/08/18 04:30:01;;;;;;;4.00;3.70;;;;;23.00;100449.00;;;;2058780;28;20219;-55
2021/08/18 04:31:01;;;;;;;4.23;3.83;;;;;23.10;100450.00;;;;2059700;28;20742;-56
2021/08/18 04:32:02;;;;;;;4.27;3.97;;;;;23.10;100446.00;;;;2058647;28;20211;-54
2021/08/18 04:33:02;;;;;;;4.10;3.80;;;;;23.10;100462.00;;;;2060167;28;20219;-53
2021/08/18 04:34:03;;;;;;;3.87;3.63;;;;;23.10;100450.00;;;;2059168;28;20234;-55
2021/08/18 04:35:04;;;;;;;3.77;3.50;;;;;23.10;100460.00;;;;2056228;28;20672;-56
2021/08/18 04:36:04;;;;;;;4.65;4.35;;;;;23.10;100452.00;;;;2055718;28;20211;-54
2021/08/18 04:37:05;;;;;;;4.03;3.73;;;;;23.10;100448.00;;;;2059858;28;20716;-56
2021/08/18 04:38:05;;;;;;;4.17;3.87;;;;;23.10;100446.00;;;;2059457;28;20494;-53
2021/08/18 04:39:06;;;;;;;3.77;3.50;;;;;23.10;100460.00;;;;2056516;28;20215;-54
2021/08/18 04:40:08;;;;;;;3.77;3.47;;;;;23.10;100455.00;;;;2066325;28;20294;-55
2021/08/18 04:41:08;;;;;;;4.30;4.00;;;;;23.10;100455.00;;;;2067668;28;20218;-55
2021/08/18 04:42:08;;;;;;;3.80;3.50;;;;;23.10;100454.00;;;;2066646;28;20708;-55
2021/08/18 04:43:12;;;;;;;4.70;4.30;;;;;23.10;100454.00;;;;2063554;28;20294;-52
2021/08/18 04:44:13;;;;;;;4.45;4.05;;;;;23.10;100459.00;;;;2062597;28;20252;-54
2021/08/18 04:45:14;;;;;;;4.00;3.70;;;;;23.10;100458.00;;;;2087822;28;20232;-55
2021/08/18 04:46:14;;;;;;;4.38;3.40;;;;;23.10;100460.00;;;;2085530;28;20275;-56
2021/08/18 04:47:15;;;;;;;3.17;2.97;;;;;23.20;100460.00;;;;2064951;28;20222;-53
2021/08/18 04:48:15;;;;;;;3.30;3.00;;;;;23.20;100455.00;;;;2063003;28;20755;-54
2021/08/18 04:49:15;;;;;;;2.93;2.73;;;;;23.20;100453.00;;;;2066708;28;20588;-54
2021/08/18 04:50:17;;;;;;;3.00;2.80;;;;;23.30;100452.00;;;;2063647;28;20229;-55
2021/08/18 04:51:17;;;;;;;2.55;2.45;;;;;23.30;100465.00;;;;2072311;28;20214;-55
2021/08/18 04:52:18;;;;;;;3.00;2.80;;;;;23.30;100453.00;;;;2072226;28;20210;-56
2021/08/18 04:53:18;;;;;;;2.73;2.53;;;;;23.30;100462.00;;;;2071829;28;20502;-53
2021/08/18 04:54:18;;;;;;;3.80;2.80;;;;;23.20;100458.00;;;;2072003;28;20299;-55
2021/08/18 04:55:19;;;;;;;2.93;2.73;;;;;23.20;100464.00;;;;2072144;28;20293;-56
2021/08/18 04:56:19;;;;;;;3.33;3.03;;;;;23.20;100466.00;;;;2067134;28;20206;-51
2021/08/18 04:57:20;;;;;;;2.97;2.77;;;;;23.30;100466.00;;;;2064989;28;20330;-55
2021/08/18 04:58:20;;;;;;;4.13;2.77;;;;;23.20;100472.00;;;;2072129;28;20209;-53
2021/08/18 04:59:21;;;;;;;7.50;4.03;;;;;23.20;100457.00;;;;2065318;28;20222;-54
2021/08/18 05:00:21;;;;;;;2.63;2.43;;;;;23.10;100467.00;;;;2063013;28;20214;-55